Time;durP1;ratioP1;P1;durP2;ratioP2;P2;SDS_P1;SDS_P2;PMS_P1;PMS_P2;Temp;Humidity;BMP_temperature;BMP_pressure;BME280_temperature;BME280_humidity;BME280_pressure;Samples;Min_cycle;Max_cycle;Signal;HPM_P1;HPM_P2
2022/12/12 00:01:57;;;;;;;9.60;8.60;;;-0.40;99.90;;;;;;4977954;28;20222;-87
2022/12/12 00:04:26;;;;;;;8.83;7.50;;;-0.40;99.90;;;;;;4978014;28;20228;-88
2022/12/12 00:06:54;;;;;;;10.50;8.97;;;-0.40;99.90;;;;;;4978000;28;20303;-87
2022/12/12 00:09:22;;;;;;;7.87;7.00;;;-0.40;99.90;;;;;;4978079;28;20266;-87
2022/12/12 00:11:50;;;;;;;11.17;8.03;;;-0.40;99.90;;;;;;4978393;28;20216;-94
2022/12/12 00:14:19;;;;;;;8.90;7.23;;;-0.40;99.90;;;;;;4978174;28;20225;-93
2022/12/12 00:16:49;;;;;;;9.13;7.67;;;-0.40;99.90;;;;;;4978082;28;20244;-87
2022/12/12 00:19:17;;;;;;;7.70;6.67;;;-0.40;99.90;;;;;;4978116;28;20208;-87
2022/12/12 00:21:45;;;;;;;9.07;7.10;;;-0.40;99.90;;;;;;4977998;28;20303;-87
2022/12/12 00:24:13;;;;;;;10.93;7.30;;;-0.50;99.90;;;;;;4977795;28;20239;-87
2022/12/12 00:26:42;;;;;;;9.13;8.23;;;-0.50;99.90;;;;;;4977567;28;20208;-87
2022/12/12 00:29:11;;;;;;;8.80;7.23;;;-0.50;99.90;;;;;;4978491;28;20247;-87
2022/12/12 00:31:39;;;;;;;7.60;6.87;;;-0.60;99.90;;;;;;4980297;28;20208;-87
2022/12/12 00:34:09;;;;;;;7.60;6.83;;;-0.50;99.90;;;;;;4980160;28;20275;-88
2022/12/12 00:36:37;;;;;;;8.23;6.90;;;-0.50;99.90;;;;;;4979748;28;20306;-88
2022/12/12 00:39:06;;;;;;;7.03;6.27;;;-0.50;99.90;;;;;;4979707;28;20233;-87
2022/12/12 00:41:36;;;;;;;9.27;8.13;;;-0.50;99.90;;;;;;4979804;28;20215;-87
2022/12/12 00:44:04;;;;;;;8.00;6.83;;;-0.50;99.90;;;;;;4980030;28;20256;-87
2022/12/12 00:46:33;;;;;;;8.27;6.77;;;-0.50;99.90;;;;;;4980172;28;20228;-88
2022/12/12 00:49:01;;;;;;;9.23;7.60;;;-0.40;99.90;;;;;;4979803;28;20207;-88
2022/12/12 00:51:31;;;;;;;10.00;6.83;;;-0.40;99.90;;;;;;4979727;28;20230;-87
2022/12/12 00:54:00;;;;;;;7.40;6.70;;;-0.50;99.90;;;;;;4979652;28;20240;-87
2022/12/12 00:56:29;;;;;;;9.13;7.37;;;-0.50;99.90;;;;;;4979579;28;20303;-88
2022/12/12 00:58:58;;;;;;;8.70;7.43;;;-0.50;99.90;;;;;;4977750;28;20288;-88
2022/12/12 01:01:28;;;;;;;9.47;7.33;;;-0.50;99.90;;;;;;4976934;28;20231;-88
2022/12/12 01:03:57;;;;;;;11.37;7.60;;;-0.50;99.90;;;;;;4977288;28;20239;-93
2022/12/12 01:06:26;;;;;;;7.83;6.50;;;-0.40;99.90;;;;;;4977222;28;20272;-94
2022/12/12 01:08:55;;;;;;;9.03;7.57;;;-0.50;99.90;;;;;;4976559;28;20296;-93
2022/12/12 01:11:24;;;;;;;7.77;6.33;;;-0.50;99.90;;;;;;4976605;28;20200;-93
2022/12/12 01:13:54;;;;;;;11.23;6.70;;;-0.50;99.90;;;;;;4976652;28;20236;-94
2022/12/12 01:16:23;;;;;;;9.47;7.27;;;-0.50;99.90;;;;;;4976994;28;20340;-93
2022/12/12 01:18:52;;;;;;;9.50;7.17;;;-0.60;99.90;;;;;;4976438;28;20377;-93
2022/12/12 01:21:21;;;;;;;10.53;7.87;;;-0.70;99.90;;;;;;4976480;28;20208;-93
2022/12/12 01:23:50;;;;;;;7.33;6.57;;;-0.70;99.90;;;;;;4976267;28;20448;-94
2022/12/12 01:26:22;;;;;;;8.10;6.80;;;-0.90;99.90;;;;;;4976417;28;20205;-93
2022/12/12 01:28:50;;;;;;;8.60;6.90;;;-0.80;99.90;;;;;;4976494;28;20208;-93
2022/12/12 01:31:19;;;;;;;10.10;6.60;;;-0.90;99.90;;;;;;4976358;28;20208;-94
2022/12/12 01:33:48;;;;;;;7.13;5.87;;;-0.90;99.90;;;;;;4976144;28;20232;-93
2022/12/12 01:36:19;;;;;;;7.20;6.50;;;-0.90;99.90;;;;;;4976121;28;20205;-93
2022/12/12 01:38:48;;;;;;;6.27;5.67;;;-0.90;99.90;;;;;;4975542;28;20230;-93
2022/12/12 01:41:19;;;;;;;7.60;6.77;;;-0.90;99.90;;;;;;4976378;28;20225;-94
2022/12/12 01:43:47;;;;;;;10.13;6.33;;;-0.90;99.90;;;;;;4975985;28;20263;-92
2022/12/12 01:46:38;;;;;;;7.93;6.83;;;-1.00;99.90;;;;;;4975990;28;20209;-93
2022/12/12 01:49:17;;;;;;;7.50;6.37;;;-1.10;99.90;;;;;;4975935;28;20211;-93
2022/12/12 01:51:48;;;;;;;6.83;5.97;;;-1.10;99.90;;;;;;4975980;28;20220;-93
2022/12/12 01:54:19;;;;;;;7.87;6.17;;;-1.10;99.90;;;;;;4976349;28;20285;-93
2022/12/12 01:56:51;;;;;;;6.70;5.63;;;-1.10;99.90;;;;;;4975760;28;20251;-92
2022/12/12 01:59:22;;;;;;;10.80;5.50;;;-1.10;99.90;;;;;;4975780;28;20228;-92
2022/12/12 02:01:52;;;;;;;7.13;6.43;;;-1.10;99.90;;;;;;4975942;28;20236;-93
2022/12/12 02:04:22;;;;;;;6.83;5.97;;;-1.20;99.90;;;;;;4975675;28;20247;-94
2022/12/12 02:06:52;;;;;;;8.47;6.40;;;-1.20;99.90;;;;;;4975476;28;20294;-93
2022/12/12 02:09:21;;;;;;;6.77;6.10;;;-1.20;99.90;;;;;;4975569;28;20224;-93
2022/12/12 02:11:53;;;;;;;7.17;6.30;;;-1.20;99.90;;;;;;4974942;28;20216;-93
2022/12/12 02:14:24;;;;;;;7.40;6.00;;;-1.20;99.90;;;;;;4975667;28;20347;-92
2022/12/12 02:17:05;;;;;;;7.07;5.97;;;-1.20;99.90;;;;;;4977517;28;20209;-92
2022/12/12 02:20:08;;;;;;;7.47;5.87;;;-1.20;99.90;;;;;;4976970;28;20224;-93
2022/12/12 02:23:01;;;;;;;6.77;6.10;;;-1.20;99.90;;;;;;4975677;28;20295;-92
2022/12/12 02:25:49;;;;;;;7.47;6.63;;;-1.20;99.90;;;;;;4975325;28;20214;-92
2022/12/12 02:28:40;;;;;;;6.47;5.70;;;-1.30;99.90;;;;;;4974937;28;20210;-92
2022/12/12 02:31:21;;;;;;;6.07;5.47;;;-1.40;99.90;;;;;;4975321;28;20210;-92
2022/12/12 02:33:57;;;;;;;9.13;7.10;;;-1.30;99.90;;;;;;4975350;28;20228;-92
2022/12/12 02:36:36;;;;;;;8.50;6.07;;;-1.40;99.90;;;;;;4975124;28;20212;-92
2022/12/12 02:39:10;;;;;;;8.57;6.57;;;-1.30;99.90;;;;;;4974748;28;20311;-91
2022/12/12 02:41:42;;;;;;;7.60;6.43;;;-1.40;99.90;;;;;;4975145;28;20218;-92
2022/12/12 02:44:21;;;;;;;8.37;6.80;;;-1.40;99.90;;;;;;4974908;28;20311;-91
2022/12/12 02:47:00;;;;;;;6.43;5.83;;;-1.40;99.90;;;;;;4975257;28;20246;-93
2022/12/12 02:49:32;;;;;;;5.57;5.03;;;-1.30;99.90;;;;;;4974969;28;20211;-93
2022/12/12 02:52:02;;;;;;;6.23;5.30;;;-1.30;99.90;;;;;;4974752;28;20219;-93
2022/12/12 02:54:30;;;;;;;9.30;6.40;;;-1.30;99.90;;;;;;4974897;28;20228;-93
2022/12/12 02:57:00;;;;;;;7.73;6.27;;;-1.30;99.90;;;;;;4974605;28;20295;-92
2022/12/12 02:59:31;;;;;;;6.07;5.53;;;-1.30;99.90;;;;;;4974529;28;20224;-93
2022/12/12 03:02:27;;;;;;;7.27;6.37;;;-1.30;99.90;;;;;;4974703;28;20243;-93
2022/12/12 03:08:18;;;;;;;5.97;5.37;;;-1.40;99.90;;;;;;4895749;29;20253;-92
2022/12/12 03:10:54;;;;;;;5.50;4.93;;;-1.30;99.90;;;;;;4961771;28;20216;-93
2022/12/12 03:13:30;;;;;;;7.83;5.93;;;-1.40;99.90;;;;;;4974725;28;20252;-93
2022/12/12 03:16:10;;;;;;;7.60;5.27;;;-1.40;99.90;;;;;;4974368;28;20218;-93
2022/12/12 03:18:48;;;;;;;6.00;5.37;;;-1.40;99.90;;;;;;4974219;28;20228;-93
2022/12/12 03:21:22;;;;;;;6.23;5.40;;;-1.40;99.90;;;;;;4973708;28;20236;-93
2022/12/12 03:23:56;;;;;;;5.37;4.87;;;-1.40;99.90;;;;;;4974124;28;20219;-92
2022/12/12 03:26:29;;;;;;;5.90;5.30;;;-1.50;99.90;;;;;;4974501;28;20219;-93
2022/12/12 03:29:04;;;;;;;5.67;5.17;;;-1.40;99.90;;;;;;4974193;28;20240;-93
2022/12/12 03:31:37;;;;;;;6.90;5.70;;;-1.50;99.90;;;;;;4974177;28;20235;-93
2022/12/12 03:34:12;;;;;;;5.70;5.17;;;-1.50;99.90;;;;;;4974713;28;20311;-93
2022/12/12 03:36:45;;;;;;;8.53;4.63;;;-1.50;99.90;;;;;;4974297;28;20279;-93
2022/12/12 03:39:20;;;;;;;6.10;5.50;;;-1.50;99.90;;;;;;4974121;28;20319;-92
2022/12/12 03:41:55;;;;;;;6.67;4.27;;;-1.50;99.90;;;;;;4974240;28;20238;-93
2022/12/12 03:44:31;;;;;;;5.70;5.00;;;-1.50;99.90;;;;;;4974084;28;20291;-92
2022/12/12 03:47:11;;;;;;;5.27;4.33;;;-1.60;99.90;;;;;;4973850;28;20209;-93
2022/12/12 03:49:45;;;;;;;8.70;5.57;;;-1.50;99.90;;;;;;4974105;28;20239;-92
2022/12/12 03:52:17;;;;;;;8.00;5.80;;;-1.60;99.90;;;;;;4974180;28;20211;-92
2022/12/12 03:54:50;;;;;;;5.83;5.07;;;-1.50;99.90;;;;;;4974196;28;20323;-92
2022/12/12 03:57:22;;;;;;;5.17;4.67;;;-1.50;99.90;;;;;;4973741;28;20209;-93
2022/12/12 03:59:54;;;;;;;6.87;6.17;;;-1.40;99.90;;;;;;4973580;28;20307;-93
2022/12/12 04:02:27;;;;;;;6.17;5.43;;;-1.40;99.90;;;;;;4974047;28;20259;-93
2022/12/12 04:05:04;;;;;;;5.70;5.17;;;-1.40;99.90;;;;;;4973554;28;20220;-93
2022/12/12 04:07:36;;;;;;;5.47;4.90;;;-1.40;99.90;;;;;;4973797;28;20208;-88
2022/12/12 04:12:58;;;;;;;7.03;5.07;;;-1.30;99.90;;;;;;4973926;28;20212;-87
2022/12/12 04:15:46;;;;;;;6.70;4.87;;;-1.20;99.90;;;;;;4973533;28;20208;-87
2022/12/12 04:18:20;;;;;;;5.83;5.23;;;-1.20;99.90;;;;;;4973375;28;20223;-87
2022/12/12 04:24:00;;;;;;;6.03;4.70;;;-1.20;99.90;;;;;;4973897;28;20242;-87
2022/12/12 04:26:40;;;;;;;5.93;4.77;;;-1.30;99.90;;;;;;4973671;28;20251;-87
2022/12/12 04:29:30;;;;;;;4.37;4.00;;;-1.30;99.90;;;;;;4973695;28;20208;-86
2022/12/12 04:32:05;;;;;;;6.07;4.63;;;-1.30;99.90;;;;;;4973878;28;20284;-86
2022/12/12 04:34:40;;;;;;;9.30;5.53;;;-1.30;99.90;;;;;;4976703;28;20232;-86
2022/12/12 04:37:14;;;;;;;4.60;4.20;;;-1.30;99.90;;;;;;4977154;28;20262;-87
2022/12/12 04:39:44;;;;;;;6.37;4.87;;;-1.30;99.90;;;;;;4977289;28;20225;-86
2022/12/12 04:42:17;;;;;;;5.00;4.50;;;-1.20;99.90;;;;;;4977130;28;20221;-86
2022/12/12 04:44:47;;;;;;;5.60;4.50;;;-1.20;99.90;;;;;;4976787;28;20233;-86
2022/12/12 04:47:16;;;;;;;5.37;4.87;;;-1.30;99.90;;;;;;4976810;28;20299;-91
2022/12/12 04:49:47;;;;;;;6.47;4.97;;;-1.20;99.90;;;;;;4977040;28;20211;-91
2022/12/12 04:52:20;;;;;;;6.33;5.17;;;-1.20;99.90;;;;;;4978537;28;20222;-90
2022/12/12 04:54:54;;;;;;;5.57;4.93;;;-1.20;99.90;;;;;;4977601;28;20319;-91
2022/12/12 04:57:29;;;;;;;6.40;5.43;;;-1.30;99.90;;;;;;4976713;28;20295;-91
2022/12/12 04:59:57;;;;;;;6.17;5.57;;;-1.30;99.90;;;;;;4977280;28;20319;-92
2022/12/12 05:02:32;;;;;;;7.57;6.03;;;-1.40;99.90;;;;;;4978394;28;20228;-91
2022/12/12 05:05:06;;;;;;;11.13;5.53;;;-1.30;99.90;;;;;;4976835;28;20292;-91
2022/12/12 05:07:38;;;;;;;7.83;6.20;;;-1.40;99.90;;;;;;4976766;28;20219;-91
2022/12/12 05:10:13;;;;;;;7.17;6.07;;;-1.40;99.90;;;;;;4976379;28;20211;-91
2022/12/12 05:12:44;;;;;;;6.70;5.53;;;-1.40;99.90;;;;;;4976787;28;20209;-91
2022/12/12 05:15:13;;;;;;;7.47;6.70;;;-1.40;99.90;;;;;;4976542;28;20235;-91
2022/12/12 05:17:44;;;;;;;7.67;5.70;;;-1.40;99.90;;;;;;4976552;28;20264;-92
2022/12/12 05:20:13;;;;;;;5.60;5.00;;;-1.40;99.90;;;;;;4976265;28;20300;-91
2022/12/12 05:22:42;;;;;;;8.93;7.27;;;-1.40;99.90;;;;;;4976583;28;20208;-91
2022/12/12 05:25:12;;;;;;;7.53;5.93;;;-1.40;99.90;;;;;;4976661;28;20234;-92
2022/12/12 05:27:41;;;;;;;8.30;6.17;;;-1.40;99.90;;;;;;4976637;28;20217;-91
2022/12/12 05:30:11;;;;;;;7.73;6.67;;;-1.50;99.90;;;;;;4975827;28;20260;-91
2022/12/12 05:32:39;;;;;;;8.53;7.00;;;-1.50;99.90;;;;;;4976174;28;20311;-91
2022/12/12 05:35:09;;;;;;;6.97;5.83;;;-1.50;99.90;;;;;;4976312;28;20232;-91
2022/12/12 05:37:37;;;;;;;7.03;6.23;;;-1.50;99.90;;;;;;4975970;28;20208;-91
2022/12/12 05:40:09;;;;;;;7.47;6.00;;;-1.60;99.90;;;;;;4976275;28;20228;-91
2022/12/12 05:42:38;;;;;;;6.40;5.80;;;-1.50;99.90;;;;;;4976315;28;20197;-91
2022/12/12 05:45:08;;;;;;;7.40;6.17;;;-1.50;99.90;;;;;;4974858;28;20236;-91
2022/12/12 05:47:36;;;;;;;7.50;6.33;;;-1.50;99.90;;;;;;4975610;28;20215;-91
2022/12/12 05:50:05;;;;;;;7.83;6.47;;;-1.50;99.90;;;;;;4975795;28;20283;-91
2022/12/12 05:52:33;;;;;;;7.00;5.87;;;-1.40;99.90;;;;;;4975858;28;20204;-91
2022/12/12 05:55:02;;;;;;;7.47;6.77;;;-1.40;99.90;;;;;;4975896;28;20288;-91
2022/12/12 05:57:33;;;;;;;9.80;7.70;;;-1.50;99.90;;;;;;4975569;28;20214;-92
2022/12/12 06:00:03;;;;;;;6.40;5.43;;;-1.40;99.90;;;;;;4975857;28;20299;-91
2022/12/12 06:02:32;;;;;;;8.60;7.17;;;-1.50;99.90;;;;;;4976158;28;20204;-91
2022/12/12 06:05:00;;;;;;;7.90;6.70;;;-1.50;99.90;;;;;;4975329;28;20232;-91
2022/12/12 06:07:28;;;;;;;9.87;7.13;;;-1.50;99.90;;;;;;4975715;28;20208;-91
2022/12/12 06:09:56;;;;;;;8.47;7.13;;;-1.50;99.90;;;;;;4976132;28;20299;-91
2022/12/12 06:12:25;;;;;;;7.67;6.60;;;-1.50;99.90;;;;;;4976421;28;20218;-91
2022/12/12 06:14:54;;;;;;;7.93;7.10;;;-1.50;99.90;;;;;;4975451;28;20248;-91
2022/12/12 06:17:23;;;;;;;7.37;6.00;;;-1.50;99.90;;;;;;4975391;28;20239;-91
2022/12/12 06:19:58;;;;;;;8.63;6.43;;;-1.50;99.90;;;;;;4975953;28;20238;-91
2022/12/12 06:22:26;;;;;;;7.50;6.60;;;-1.60;99.90;;;;;;4975551;28;20232;-92
2022/12/12 06:24:55;;;;;;;7.97;6.67;;;-1.60;99.90;;;;;;4975248;28;20321;-92
2022/12/12 06:27:23;;;;;;;7.53;6.33;;;-1.70;99.90;;;;;;4975152;28;20232;-91
2022/12/12 06:29:51;;;;;;;10.03;6.90;;;-1.80;99.90;;;;;;4975669;28;20236;-91
2022/12/12 06:32:21;;;;;;;9.30;6.70;;;-1.80;99.90;;;;;;4975393;28;20303;-91
2022/12/12 06:34:49;;;;;;;7.53;6.03;;;-1.90;99.90;;;;;;4975142;28;20229;-91
2022/12/12 06:37:18;;;;;;;7.17;5.93;;;-1.90;99.90;;;;;;4975235;28;20263;-91
2022/12/12 06:39:46;;;;;;;7.77;5.80;;;-1.90;99.90;;;;;;4974802;28;20205;-91
2022/12/12 06:42:15;;;;;;;6.43;5.27;;;-2.00;99.90;;;;;;4974655;28;20235;-91
2022/12/12 06:44:43;;;;;;;8.20;5.50;;;-2.00;99.90;;;;;;4975300;28;20236;-90
2022/12/12 06:47:11;;;;;;;8.23;6.07;;;-2.10;99.90;;;;;;4974678;28;20215;-91
2022/12/12 06:49:41;;;;;;;5.50;5.00;;;-2.00;99.90;;;;;;4974801;28;20291;-90
2022/12/12 06:52:09;;;;;;;7.63;5.50;;;-2.00;99.90;;;;;;4985993;28;20234;-89
2022/12/12 06:54:38;;;;;;;7.50;6.20;;;-2.00;99.90;;;;;;4994168;28;20314;-90
2022/12/12 06:57:06;;;;;;;5.10;4.57;;;-2.00;99.90;;;;;;4993400;28;20247;-90
2022/12/12 06:59:34;;;;;;;5.17;4.67;;;-2.00;99.90;;;;;;4975065;28;20204;-88
2022/12/12 07:02:10;;;;;;;6.50;5.90;;;-2.10;99.90;;;;;;4973961;28;20217;-93
2022/12/12 07:04:39;;;;;;;7.57;5.83;;;-2.10;99.90;;;;;;4974669;28;20231;-93
2022/12/12 07:07:09;;;;;;;6.37;5.77;;;-2.00;99.90;;;;;;4973786;28;20232;-92
2022/12/12 07:09:37;;;;;;;6.87;5.27;;;-2.00;99.90;;;;;;4973760;28;20240;-93
2022/12/12 07:12:05;;;;;;;5.53;4.97;;;-2.00;99.90;;;;;;4993426;28;20234;-94
2022/12/12 07:14:34;;;;;;;7.10;6.00;;;-2.00;99.90;;;;;;5006801;28;20215;-93
2022/12/12 07:17:02;;;;;;;6.43;5.63;;;-2.10;99.90;;;;;;4993576;28;20204;-94
2022/12/12 07:19:31;;;;;;;14.27;5.60;;;-2.00;99.90;;;;;;4993604;28;20207;-93
2022/12/12 07:21:59;;;;;;;7.67;5.80;;;-1.90;99.90;;;;;;4994875;28;20216;-93
2022/12/12 07:24:38;;;;;;;5.70;5.03;;;-1.90;99.90;;;;;;4994772;28;20242;-93
2022/12/12 07:27:07;;;;;;;6.23;5.63;;;-1.90;99.90;;;;;;4983831;28;20209;-93
2022/12/12 07:29:36;;;;;;;6.57;5.80;;;-1.90;99.90;;;;;;4974265;28;20220;-94
2022/12/12 07:32:04;;;;;;;6.13;5.50;;;-2.00;99.90;;;;;;4974038;28;20204;-93
2022/12/12 07:34:33;;;;;;;6.63;5.90;;;-1.90;99.90;;;;;;4974413;28;20235;-93
2022/12/12 07:37:02;;;;;;;9.07;5.20;;;-1.90;99.90;;;;;;4973942;28;20208;-93
2022/12/12 07:39:31;;;;;;;8.17;6.20;;;-2.00;99.90;;;;;;4991448;28;20243;-93
2022/12/12 07:42:01;;;;;;;8.47;5.93;;;-2.00;99.90;;;;;;5012534;28;20222;-91
2022/12/12 07:44:29;;;;;;;8.63;6.80;;;-1.90;99.90;;;;;;4992594;28;20287;-93
2022/12/12 07:46:58;;;;;;;6.70;5.93;;;-1.90;99.90;;;;;;4990943;28;20227;-93
2022/12/12 07:49:28;;;;;;;6.53;5.93;;;-1.90;99.90;;;;;;4992324;28;20207;-93
2022/12/12 07:51:57;;;;;;;7.93;6.60;;;-1.90;99.90;;;;;;4993719;28;20218;-92
2022/12/12 07:54:25;;;;;;;7.27;6.30;;;-2.00;99.90;;;;;;4992526;28;20254;-93
2022/12/12 07:56:54;;;;;;;6.63;5.90;;;-2.00;99.90;;;;;;4993028;28;20208;-93
2022/12/12 07:59:24;;;;;;;8.53;6.63;;;-2.00;99.90;;;;;;4993298;28;20238;-94
2022/12/12 08:01:53;;;;;;;5.57;5.07;;;-1.90;99.90;;;;;;4992065;28;20212;-93
2022/12/12 08:04:22;;;;;;;7.37;6.03;;;-1.90;99.90;;;;;;4978168;28;20220;-93
2022/12/12 08:06:51;;;;;;;9.47;6.40;;;-1.80;99.90;;;;;;4973660;28;20230;-93
2022/12/12 08:09:28;;;;;;;5.97;4.97;;;-1.80;99.90;;;;;;4985091;28;20211;-94
2022/12/12 08:11:57;;;;;;;6.87;5.20;;;-1.70;99.90;;;;;;4996661;28;20212;-93
2022/12/12 08:14:28;;;;;;;9.53;6.77;;;-1.70;99.90;;;;;;4995010;28;20219;-91
2022/12/12 08:16:56;;;;;;;6.90;4.97;;;-1.70;99.90;;;;;;4997018;28;20207;-92
2022/12/12 08:19:25;;;;;;;6.93;5.63;;;-1.70;99.90;;;;;;4997377;28;20266;-92
2022/12/12 08:21:53;;;;;;;6.40;5.50;;;-1.70;99.90;;;;;;4994685;28;20227;-92
2022/12/12 08:24:22;;;;;;;9.97;5.93;;;-1.60;99.90;;;;;;4998256;28;20278;-93
2022/12/12 08:26:51;;;;;;;7.07;5.53;;;-1.60;99.90;;;;;;4997193;28;20235;-90
2022/12/12 08:29:20;;;;;;;6.57;5.63;;;-1.60;99.90;;;;;;4998122;28;20204;-90
2022/12/12 08:31:50;;;;;;;7.40;5.53;;;-1.60;99.90;;;;;;4997984;28;20283;-88
2022/12/12 08:34:49;;;;;;;5.73;4.60;;;-1.60;99.90;;;;;;4999740;28;20250;-96
2022/12/12 08:37:33;;;;;;;6.40;5.77;;;-1.50;99.90;;;;;;5005959;28;20215;-96
2022/12/12 08:40:29;;;;;;;7.10;5.27;;;-1.50;99.90;;;;;;5008824;28;20210;-96
2022/12/12 08:43:18;;;;;;;7.00;5.83;;;-1.40;99.90;;;;;;4946794;29;20220;-93
2022/12/12 08:45:51;;;;;;;7.87;5.60;;;-1.40;99.90;;;;;;4949040;29;20198;-94
2022/12/12 08:48:24;;;;;;;5.77;5.07;;;-1.30;99.90;;;;;;4936493;29;20209;-96
2022/12/12 08:50:52;;;;;;;6.60;5.57;;;-1.30;99.90;;;;;;4934838;29;20210;-96
2022/12/12 08:53:21;;;;;;;7.90;5.97;;;-1.30;99.90;;;;;;4937001;29;20321;-95
2022/12/12 08:55:50;;;;;;;8.77;6.60;;;-1.40;99.90;;;;;;4935882;29;20209;-96
2022/12/12 08:58:18;;;;;;;9.83;6.87;;;-1.40;99.90;;;;;;4947387;29;20365;-94
2022/12/12 09:00:47;;;;;;;8.50;7.17;;;-1.40;99.90;;;;;;4970467;28;20197;-90
2022/12/12 09:03:17;;;;;;;8.60;7.13;;;-1.30;99.90;;;;;;4995951;28;20227;-92
2022/12/12 09:05:47;;;;;;;11.47;7.53;;;-1.20;99.90;;;;;;4994569;28;20196;-93
2022/12/12 09:08:16;;;;;;;7.53;6.33;;;-1.10;99.90;;;;;;4995812;28;20208;-92
2022/12/12 09:10:49;;;;;;;9.63;7.93;;;-1.10;99.90;;;;;;4995407;28;20258;-92
2022/12/12 09:13:19;;;;;;;10.67;7.90;;;-1.00;99.90;;;;;;4993512;28;20224;-92
2022/12/12 09:15:51;;;;;;;12.30;7.83;;;-1.20;99.90;;;;;;4995681;28;20221;-93
2022/12/12 09:18:19;;;;;;;8.77;6.90;;;-1.20;99.90;;;;;;4990569;28;20265;-92
2022/12/12 09:20:50;;;;;;;10.33;7.67;;;-1.10;99.90;;;;;;4991537;28;20283;-92
2022/12/12 09:23:19;;;;;;;8.60;7.60;;;-1.20;99.90;;;;;;4975675;28;20260;-93
2022/12/12 09:25:48;;;;;;;10.63;7.90;;;-1.20;99.90;;;;;;4976263;28;20205;-92
2022/12/12 09:28:18;;;;;;;8.00;7.20;;;-1.20;99.90;;;;;;4975902;28;20300;-93
2022/12/12 09:30:47;;;;;;;9.73;7.43;;;-1.10;99.90;;;;;;4983818;28;20220;-93
2022/12/12 09:33:16;;;;;;;8.07;7.23;;;-1.10;99.90;;;;;;4978983;28;20219;-92
2022/12/12 09:35:44;;;;;;;9.73;7.30;;;-1.10;99.90;;;;;;4975276;28;20204;-93
2022/12/12 09:38:14;;;;;;;7.43;6.77;;;-1.10;99.90;;;;;;4975654;28;20205;-92
2022/12/12 09:40:49;;;;;;;10.80;7.57;;;-1.00;99.90;;;;;;4978289;28;20213;-93
2022/12/12 09:43:20;;;;;;;13.20;8.17;;;-1.00;99.90;;;;;;4975543;28;20252;-93
2022/12/12 09:45:56;;;;;;;7.87;7.07;;;-0.90;99.90;;;;;;4991811;28;20200;-92
2022/12/12 09:48:31;;;;;;;9.30;7.20;;;-0.80;99.90;;;;;;4995122;28;20221;-93
2022/12/12 09:50:59;;;;;;;13.23;10.40;;;-0.80;99.90;;;;;;4995141;28;20298;-93
2022/12/12 09:53:29;;;;;;;8.83;7.37;;;-0.70;99.90;;;;;;4995891;28;20270;-93
2022/12/12 09:56:04;;;;;;;8.70;7.23;;;-0.70;99.90;;;;;;4995490;28;20303;-93
2022/12/12 09:58:37;;;;;;;7.73;6.97;;;-0.70;99.90;;;;;;4994779;28;20294;-93
2022/12/12 10:01:21;;;;;;;10.67;8.90;;;-0.60;99.90;;;;;;4995210;28;20207;-93
2022/12/12 10:03:58;;;;;;;14.07;9.07;;;-0.60;99.90;;;;;;4996988;28;20237;-92
2022/12/12 10:06:32;;;;;;;11.80;7.50;;;-0.60;99.90;;;;;;4984677;28;20207;-93
2022/12/12 10:09:24;;;;;;;8.03;6.67;;;-0.60;99.90;;;;;;4995168;28;20287;-93
2022/12/12 10:11:54;;;;;;;12.90;9.80;;;-0.70;99.90;;;;;;4994212;28;20238;-93
2022/12/12 10:14:33;;;;;;;7.83;7.03;;;-0.80;99.90;;;;;;4993388;28;20219;-93
2022/12/12 10:17:03;;;;;;;9.07;7.67;;;-0.70;99.90;;;;;;4995505;28;20239;-93
2022/12/12 10:19:41;;;;;;;7.10;6.40;;;-0.70;99.90;;;;;;4990024;28;20244;-93
2022/12/12 10:22:18;;;;;;;10.13;7.20;;;-0.80;99.90;;;;;;4995969;28;20286;-93
2022/12/12 10:25:03;;;;;;;9.90;7.10;;;-0.80;99.90;;;;;;4998082;28;20290;-93
2022/12/12 10:27:32;;;;;;;7.70;6.90;;;-0.80;99.90;;;;;;4995360;28;20215;-93
2022/12/12 10:30:10;;;;;;;7.23;6.53;;;-0.80;99.90;;;;;;4992075;28;20230;-92
2022/12/12 10:32:48;;;;;;;7.83;6.73;;;-0.90;99.90;;;;;;4994152;28;20234;-93
2022/12/12 10:35:26;;;;;;;10.13;6.23;;;-1.00;99.90;;;;;;4994287;28;20226;-93
2022/12/12 10:38:04;;;;;;;7.00;6.30;;;-1.00;99.90;;;;;;4994419;28;20208;-92
2022/12/12 10:40:45;;;;;;;13.37;7.50;;;-1.00;99.90;;;;;;4994473;28;20263;-92
2022/12/12 10:43:21;;;;;;;9.80;7.20;;;-0.80;99.90;;;;;;4994147;28;20306;-92
2022/12/12 10:46:09;;;;;;;10.20;8.80;;;-0.80;99.90;;;;;;4989581;28;20204;-93
2022/12/12 10:48:39;;;;;;;9.97;7.10;;;-0.80;99.90;;;;;;4994761;28;20206;-93
2022/12/12 10:51:10;;;;;;;15.93;10.13;;;-0.90;99.90;;;;;;4997169;28;20295;-93
2022/12/12 10:53:40;;;;;;;8.53;7.37;;;-0.80;99.90;;;;;;4994307;28;20247;-92
2022/12/12 10:56:18;;;;;;;10.93;8.90;;;-0.80;99.90;;;;;;4993912;28;20211;-94
2022/12/12 10:58:54;;;;;;;9.43;8.20;;;-0.80;99.90;;;;;;4993973;28;20208;-93
2022/12/12 11:01:26;;;;;;;10.20;8.47;;;-0.60;99.90;;;;;;4992566;28;20297;-94
2022/12/12 11:04:15;;;;;;;13.97;9.20;;;-0.60;99.90;;;;;;4979236;28;20234;-94
2022/12/12 11:06:48;;;;;;;9.80;7.60;;;-0.50;99.90;;;;;;4993925;28;20228;-93
2022/12/12 11:09:22;;;;;;;9.07;7.60;;;-0.50;99.90;;;;;;4993722;28;20262;-93
2022/12/12 11:12:02;;;;;;;5.93;5.20;;;-0.50;99.90;;;;;;4994003;28;20207;-93
2022/12/12 11:14:34;;;;;;;6.47;5.57;;;-0.70;99.90;;;;;;4993466;28;20258;-93
2022/12/12 11:17:17;;;;;;;9.33;6.53;;;-0.70;99.90;;;;;;4990546;28;20248;-93
2022/12/12 11:19:46;;;;;;;7.37;5.03;;;-0.70;99.90;;;;;;4989189;28;20207;-93
2022/12/12 11:22:15;;;;;;;7.90;6.47;;;-0.80;99.90;;;;;;4994018;28;20322;-92
2022/12/12 11:24:48;;;;;;;12.73;6.10;;;-0.70;99.90;;;;;;4993065;28;20255;-93
2022/12/12 11:27:26;;;;;;;6.23;5.63;;;-0.60;99.90;;;;;;4993483;28;20208;-93
2022/12/12 11:29:58;;;;;;;6.70;6.00;;;-0.70;99.90;;;;;;4980932;28;20200;-91
2022/12/12 11:32:29;;;;;;;8.83;7.07;;;-0.70;99.90;;;;;;4982628;28;20258;-93
2022/12/12 11:35:01;;;;;;;7.03;6.23;;;-0.60;99.90;;;;;;4993805;28;20244;-93
2022/12/12 11:37:38;;;;;;;7.23;6.53;;;-0.50;99.90;;;;;;4992728;28;20211;-94
2022/12/12 11:40:19;;;;;;;7.37;6.43;;;-0.50;99.90;;;;;;4982404;28;20212;-95
2022/12/12 11:42:50;;;;;;;6.90;6.20;;;-0.70;99.90;;;;;;5010687;28;20271;-95
2022/12/12 11:45:23;;;;;;;9.13;7.00;;;-0.80;99.90;;;;;;4986778;28;20279;-94
2022/12/12 11:47:51;;;;;;;7.17;6.43;;;-0.80;99.90;;;;;;4973992;28;20263;-93
2022/12/12 11:50:23;;;;;;;7.50;6.80;;;-0.70;99.90;;;;;;4973554;28;20209;-94
2022/12/12 11:52:53;;;;;;;5.90;5.37;;;-0.50;99.90;;;;;;4998398;28;20312;-92
2022/12/12 11:55:33;;;;;;;11.53;7.93;;;-0.30;99.90;;;;;;4994187;28;20231;-93
2022/12/12 11:58:29;;;;;;;10.10;8.13;;;-0.40;99.90;;;;;;5162355;23;20326;-94
2022/12/12 12:01:25;;;;;;;7.73;6.70;;;-0.20;99.90;;;;;;4969540;28;20207;-94
2022/12/12 12:04:26;;;;;;;9.30;6.10;;;-0.20;99.90;;;;;;4982222;28;20223;-93
2022/12/12 12:07:29;;;;;;;7.97;6.90;;;-0.20;99.90;;;;;;4992679;28;20239;-94
2022/12/12 12:10:20;;;;;;;8.07;6.30;;;-0.30;99.90;;;;;;4954101;29;20238;-94
2022/12/12 12:13:02;;;;;;;11.20;8.40;;;-0.50;99.90;;;;;;4954456;29;20209;-93
2022/12/12 12:15:47;;;;;;;10.37;6.23;;;-0.30;99.90;;;;;;4965298;28;20204;-93
2022/12/12 12:18:33;;;;;;;6.03;5.43;;;-0.50;99.90;;;;;;4956028;29;20209;-93
2022/12/12 12:21:27;;;;;;;7.60;6.90;;;-0.50;99.90;;;;;;4968431;28;20212;-93
2022/12/12 12:27:47;;;;;;;7.93;6.80;;;-0.60;99.90;;;;;;4969402;28;20211;-92
2022/12/12 12:30:34;;;;;;;8.40;7.27;;;-0.60;99.90;;;;;;4973184;28;20221;-92
2022/12/12 12:37:20;;;;;;;9.50;6.67;;;-0.70;99.90;;;;;;4985966;28;20197;-93
2022/12/12 12:44:06;;;;;;;10.27;7.00;;;-0.90;99.90;;;;;;4928751;28;20236;-91
2022/12/12 12:47:21;;;;;;;8.07;6.53;;;-1.00;99.90;;;;;;4936033;28;20246;-92
2022/12/12 12:50:14;;;;;;;9.13;6.73;;;-1.10;99.90;;;;;;4973081;28;20285;-91
2022/12/12 12:53:13;;;;;;;7.87;7.07;;;-1.00;99.90;;;;;;4973621;28;20212;-92
2022/12/12 12:56:06;;;;;;;7.53;6.73;;;-1.10;99.90;;;;;;4975777;28;20204;-92
2022/12/12 12:59:23;;;;;;;6.70;5.87;;;-1.10;99.90;;;;;;4971389;28;20222;-93
2022/12/12 13:02:26;;;;;;;8.40;7.03;;;-1.00;99.90;;;;;;4964138;28;20209;-91
2022/12/12 13:08:33;;;;;;;8.87;7.47;;;-0.90;99.90;;;;;;4976355;28;20248;-93
2022/12/12 13:15:32;;;;;;;8.87;7.40;;;-0.90;99.90;;;;;;4975872;28;20315;-92
2022/12/12 13:18:44;;;;;;;9.37;7.60;;;-0.90;99.90;;;;;;4930024;28;20212;-91
2022/12/12 13:21:52;;;;;;;10.00;8.20;;;-0.90;99.90;;;;;;4952883;29;20205;-93
2022/12/12 13:25:31;;;;;;;9.27;7.90;;;-1.00;99.90;;;;;;4954488;29;20225;-91
2022/12/12 13:32:33;;;;;;;9.73;7.40;;;-1.20;99.90;;;;;;4962970;28;20199;-92
2022/12/12 13:35:47;;;;;;;;;;;;;;;;;;;;;
2022/12/12 13:39:07;;;;;;;9.20;7.30;;;-1.10;99.90;;;;;;4994731;28;20223;-93
2022/12/12 13:45:55;;;;;;;9.67;6.43;;;-1.20;99.90;;;;;;4953918;29;20233;-92
2022/12/12 14:02:58;;;;;;;7.10;6.40;;;-1.50;99.90;;;;;;4852258;29;20201;-92
2022/12/12 14:05:58;;;;;;;12.90;7.37;;;-1.50;99.90;;;;;;4821581;29;20308;-92
2022/12/12 14:11:50;;;;;;;11.33;8.40;;;-1.60;99.90;;;;;;4825099;29;20201;-92
2022/12/12 14:14:57;;;;;;;9.37;7.93;;;-1.60;99.90;;;;;;4852715;29;20220;-91
2022/12/12 14:17:53;;;;;;;9.07;7.33;;;-1.50;99.90;;;;;;4868163;29;20204;-88
2022/12/12 14:20:33;;;;;;;15.07;8.13;;;-1.40;99.90;;;;;;4880820;29;20372;-89